Time;durP1;ratioP1;P1;durP2;ratioP2;P2;SDS_P1;SDS_P2;PMS_P1;PMS_P2;Temp;Humidity;BMP_temperature;BMP_pressure;BME280_temperature;BME280_humidity;BME280_pressure;Samples;Min_cycle;Max_cycle;Signal;HPM_P1;HPM_P2
2024/01/11 00:01:37;;;;;;;3.75;1.90;;;;;;;;;;4975035;28;20058;-85
2024/01/11 00:04:08;;;;;;;5.55;1.25;;;;;;;;;;4957363;28;20054;-84
2024/01/11 00:06:44;;;;;;;7.45;2.00;;;;;;;;;;4956966;28;20520;-85
2024/01/11 00:09:15;;;;;;;5.10;1.55;;;;;;;;;;4957993;28;20516;-84
2024/01/11 00:11:46;;;;;;;5.50;1.98;;;;;;;;;;4941587;28;20054;-85
2024/01/11 00:14:16;;;;;;;8.05;2.08;;;;;;;;;;4975058;28;20129;-85
2024/01/11 00:16:47;;;;;;;9.00;2.10;;;;;;;;;;4957699;28;20055;-84
2024/01/11 00:19:21;;;;;;;6.95;1.88;;;;;;;;;;4974910;28;20083;-84
2024/01/11 00:21:51;;;;;;;4.00;1.80;;;;;;;;;;4941961;28;20055;-84
2024/01/11 00:24:22;;;;;;;9.05;2.33;;;;;;;;;;4974629;28;20058;-84
2024/01/11 00:26:54;;;;;;;4.40;1.80;;;;;;;;;;4957298;28;20058;-85
2024/01/11 00:29:25;;;;;;;4.93;1.88;;;;;;;;;;4975282;28;20043;-85
2024/01/11 00:31:58;;;;;;;3.90;1.80;;;;;;;;;;4974670;28;20046;-85
2024/01/11 00:34:28;;;;;;;5.57;1.92;;;;;;;;;;4957632;28;20537;-84
2024/01/11 00:36:58;;;;;;;6.82;2.47;;;;;;;;;;4941283;28;20047;-85
2024/01/11 00:39:29;;;;;;;3.85;1.75;;;;;;;;;;4953543;28;20047;-85
2024/01/11 00:41:59;;;;;;;4.28;2.17;;;;;;;;;;4946170;28;20051;-85
2024/01/11 00:44:30;;;;;;;4.82;2.10;;;;;;;;;;4968984;28;20053;-84
2024/01/11 00:47:01;;;;;;;4.65;2.05;;;;;;;;;;4936250;28;20051;-85
2024/01/11 00:49:33;;;;;;;4.38;1.80;;;;;;;;;;4954790;28;20043;-85
2024/01/11 00:52:05;;;;;;;5.53;2.08;;;;;;;;;;4950126;29;20058;-84
2024/01/11 00:54:36;;;;;;;7.15;1.98;;;;;;;;;;4947199;28;20047;-85
2024/01/11 00:57:06;;;;;;;12.23;2.55;;;;;;;;;;4920563;29;20410;-85
2024/01/11 00:59:37;;;;;;;7.05;2.45;;;;;;;;;;4936763;29;20051;-85
2024/01/11 01:02:07;;;;;;;6.35;2.28;;;;;;;;;;4935150;29;20051;-85
2024/01/11 01:04:41;;;;;;;5.05;2.22;;;;;;;;;;4951193;29;20051;-84
2024/01/11 01:07:11;;;;;;;6.15;1.83;;;;;;;;;;4951743;28;20066;-83
2024/01/11 01:09:41;;;;;;;3.47;1.80;;;;;;;;;;4943642;28;20505;-84
2024/01/11 01:12:11;;;;;;;6.25;2.13;;;;;;;;;;4951270;28;20050;-83
2024/01/11 01:14:41;;;;;;;4.57;2.45;;;;;;;;;;4971962;28;20057;-84
2024/01/11 01:17:11;;;;;;;6.25;2.15;;;;;;;;;;4955354;28;20051;-84
2024/01/11 01:19:45;;;;;;;5.72;1.90;;;;;;;;;;4954236;28;20147;-84
2024/01/11 01:22:16;;;;;;;5.45;1.92;;;;;;;;;;4939653;28;20050;-83
2024/01/11 01:24:47;;;;;;;3.30;1.80;;;;;;;;;;4936703;28;20382;-85
2024/01/11 01:27:17;;;;;;;4.93;1.90;;;;;;;;;;4919370;29;20058;-83
2024/01/11 01:29:49;;;;;;;4.53;1.95;;;;;;;;;;4935227;29;20059;-84
2024/01/11 01:32:20;;;;;;;7.78;2.13;;;;;;;;;;4952978;29;20051;-83
2024/01/11 01:34:51;;;;;;;6.63;2.10;;;;;;;;;;4934761;29;20047;-84
2024/01/11 01:37:23;;;;;;;4.78;1.92;;;;;;;;;;4952881;29;20517;-84
2024/01/11 01:39:54;;;;;;;5.28;2.17;;;;;;;;;;4952196;29;20490;-83
2024/01/11 01:42:24;;;;;;;6.63;2.42;;;;;;;;;;4936082;29;20047;-84
2024/01/11 01:44:55;;;;;;;6.15;2.60;;;;;;;;;;4935626;29;20062;-85
2024/01/11 01:47:27;;;;;;;5.93;2.70;;;;;;;;;;4935480;29;20058;-84
2024/01/11 01:49:57;;;;;;;8.80;2.67;;;;;;;;;;4935845;29;20047;-84
2024/01/11 01:52:28;;;;;;;6.00;2.55;;;;;;;;;;4936164;29;20058;-84
2024/01/11 01:54:59;;;;;;;6.68;2.45;;;;;;;;;;4939923;28;20043;-83
2024/01/11 01:57:33;;;;;;;7.72;2.80;;;;;;;;;;4958336;28;20059;-84
2024/01/11 02:00:05;;;;;;;5.88;3.08;;;;;;;;;;4958101;28;20390;-84
2024/01/11 02:02:42;;;;;;;7.82;2.40;;;;;;;;;;4962911;28;20511;-84
2024/01/11 02:05:18;;;;;;;6.57;2.20;;;;;;;;;;4940788;29;20043;-84
2024/01/11 02:07:50;;;;;;;6.35;2.60;;;;;;;;;;4956904;29;20056;-84
2024/01/11 02:10:22;;;;;;;3.92;2.22;;;;;;;;;;4940613;29;20043;-84
2024/01/11 02:12:53;;;;;;;6.43;2.10;;;;;;;;;;4941933;29;20050;-84
2024/01/11 02:15:23;;;;;;;4.32;2.00;;;;;;;;;;4958378;29;20047;-84
2024/01/11 02:17:54;;;;;;;5.05;1.95;;;;;;;;;;4940730;29;20062;-83
2024/01/11 02:20:25;;;;;;;3.75;1.80;;;;;;;;;;4958069;29;20054;-84
2024/01/11 02:23:01;;;;;;;7.88;2.53;;;;;;;;;;4941861;29;20043;-83
2024/01/11 02:25:31;;;;;;;5.50;2.55;;;;;;;;;;4955015;29;20063;-84
2024/01/11 02:28:02;;;;;;;9.25;3.95;;;;;;;;;;4941131;29;20079;-84
2024/01/11 02:30:32;;;;;;;10.45;2.75;;;;;;;;;;4958109;29;20074;-85
2024/01/11 02:33:02;;;;;;;3.97;2.00;;;;;;;;;;4957790;29;20057;-84
2024/01/11 02:35:35;;;;;;;7.00;2.60;;;;;;;;;;4940721;29;20051;-84
2024/01/11 02:38:07;;;;;;;8.73;2.97;;;;;;;;;;4955943;29;20047;-85
2024/01/11 02:40:38;;;;;;;8.27;2.35;;;;;;;;;;4941067;29;20509;-85
2024/01/11 02:43:11;;;;;;;5.30;2.35;;;;;;;;;;4943006;28;20057;-84
2024/01/11 02:45:41;;;;;;;6.55;2.67;;;;;;;;;;4970916;28;20414;-84
2024/01/11 02:48:12;;;;;;;7.78;2.50;;;;;;;;;;4959876;28;20070;-84
2024/01/11 02:50:43;;;;;;;4.25;2.17;;;;;;;;;;4974967;28;20054;-84
2024/01/11 02:53:14;;;;;;;10.65;2.63;;;;;;;;;;4948729;29;20051;-84
2024/01/11 02:55:43;;;;;;;5.43;2.50;;;;;;;;;;4957010;28;20055;-85
2024/01/11 02:58:15;;;;;;;10.32;3.00;;;;;;;;;;4955704;29;20051;-85
2024/01/11 03:00:45;;;;;;;6.10;2.28;;;;;;;;;;4950010;28;20057;-84
2024/01/11 03:03:16;;;;;;;7.28;3.00;;;;;;;;;;4975716;28;20057;-85
2024/01/11 03:05:46;;;;;;;4.43;2.47;;;;;;;;;;4958429;28;20054;-85
2024/01/11 03:08:17;;;;;;;4.97;2.22;;;;;;;;;;4959091;28;20506;-84
2024/01/11 03:10:48;;;;;;;8.18;2.58;;;;;;;;;;4976103;28;20042;-85
2024/01/11 03:13:19;;;;;;;11.45;2.75;;;;;;;;;;4958327;28;20055;-85
2024/01/11 03:15:48;;;;;;;5.50;2.30;;;;;;;;;;4975675;28;20047;-84
2024/01/11 03:18:18;;;;;;;8.45;2.42;;;;;;;;;;4975961;28;20061;-84
2024/01/11 03:20:50;;;;;;;6.32;2.35;;;;;;;;;;4975716;28;20039;-84
2024/01/11 03:23:21;;;;;;;8.30;2.22;;;;;;;;;;4975791;28;20045;-85
2024/01/11 03:25:54;;;;;;;8.15;2.03;;;;;;;;;;4942411;28;20058;-83
2024/01/11 03:28:25;;;;;;;7.65;2.28;;;;;;;;;;4958915;28;20055;-84
2024/01/11 03:30:57;;;;;;;8.07;2.20;;;;;;;;;;4942981;28;20070;-85
2024/01/11 03:33:28;;;;;;;6.75;2.25;;;;;;;;;;4958597;28;20054;-84
2024/01/11 03:35:58;;;;;;;7.97;2.35;;;;;;;;;;4942969;28;20047;-84
2024/01/11 03:38:28;;;;;;;6.75;2.35;;;;;;;;;;4975468;28;20054;-84
2024/01/11 03:40:59;;;;;;;5.97;2.30;;;;;;;;;;4976357;28;20055;-84
2024/01/11 03:43:31;;;;;;;11.23;2.45;;;;;;;;;;4976318;28;20043;-84
2024/01/11 03:46:02;;;;;;;5.40;2.72;;;;;;;;;;4958528;28;20069;-85
2024/01/11 03:48:35;;;;;;;7.30;2.97;;;;;;;;;;4958273;28;20394;-85
2024/01/11 03:51:06;;;;;;;6.05;2.17;;;;;;;;;;4974487;28;20050;-85
2024/01/11 03:53:37;;;;;;;8.02;2.50;;;;;;;;;;4957486;28;20078;-85
2024/01/11 03:56:09;;;;;;;3.97;2.30;;;;;;;;;;4958468;28;20050;-85
2024/01/11 03:58:41;;;;;;;7.13;2.60;;;;;;;;;;4957848;28;20054;-84
2024/01/11 04:01:11;;;;;;;;;;;;;;;;;;4958650;28;20046;-84
2024/01/11 04:03:42;;;;;;;5.78;2.40;;;;;;;;;;4957642;28;20384;-84
2024/01/11 04:06:24;;;;;;;8.85;2.80;;;;;;;;;;4957891;28;20047;-84
2024/01/11 04:08:54;;;;;;;6.40;2.53;;;;;;;;;;4975684;28;20039;-84
2024/01/11 04:11:28;;;;;;;5.10;2.55;;;;;;;;;;4958525;28;20046;-84
2024/01/11 04:13:59;;;;;;;9.43;2.78;;;;;;;;;;4958943;28;20482;-84
2024/01/11 04:16:31;;;;;;;3.80;2.17;;;;;;;;;;4975454;28;20501;-84
2024/01/11 04:19:03;;;;;;;7.55;2.58;;;;;;;;;;4957708;28;20053;-84
2024/01/11 04:21:34;;;;;;;4.95;2.15;;;;;;;;;;4958840;28;20043;-84
2024/01/11 04:24:09;;;;;;;8.13;2.03;;;;;;;;;;4975262;28;20509;-84
2024/01/11 04:26:40;;;;;;;5.82;2.50;;;;;;;;;;4975052;28;20057;-85
2024/01/11 04:29:10;;;;;;;7.78;2.30;;;;;;;;;;4975221;28;20057;-84
2024/01/11 04:31:42;;;;;;;7.32;2.20;;;;;;;;;;4958544;28;20053;-84
2024/01/11 04:34:13;;;;;;;8.25;2.83;;;;;;;;;;4941697;28;20512;-84
2024/01/11 04:36:44;;;;;;;6.18;2.58;;;;;;;;;;4958169;28;20508;-84
2024/01/11 04:39:15;;;;;;;6.57;2.40;;;;;;;;;;4958711;28;20061;-84
2024/01/11 04:41:45;;;;;;;22.52;4.57;;;;;;;;;;4975584;28;20053;-84
2024/01/11 04:44:16;;;;;;;5.88;2.70;;;;;;;;;;4958036;28;20049;-84
2024/01/11 04:46:48;;;;;;;8.13;2.85;;;;;;;;;;4974898;28;20050;-84
2024/01/11 04:49:19;;;;;;;5.82;2.38;;;;;;;;;;4941532;28;20055;-84
2024/01/11 04:51:49;;;;;;;5.55;2.95;;;;;;;;;;4941148;28;20058;-84
2024/01/11 04:54:21;;;;;;;5.95;2.50;;;;;;;;;;4941369;28;20055;-84
2024/01/11 04:56:53;;;;;;;7.00;2.70;;;;;;;;;;4956994;28;20058;-84
2024/01/11 04:59:24;;;;;;;5.10;2.47;;;;;;;;;;4974782;28;20053;-85
2024/01/11 05:01:54;;;;;;;9.02;2.95;;;;;;;;;;4941277;28;20055;-84
2024/01/11 05:04:25;;;;;;;7.13;2.97;;;;;;;;;;4957820;28;20043;-84
2024/01/11 05:06:56;;;;;;;14.25;3.72;;;;;;;;;;4941681;28;20050;-83
2024/01/11 05:09:26;;;;;;;9.30;3.35;;;;;;;;;;4956835;28;20051;-83
2024/01/11 05:11:58;;;;;;;5.63;2.90;;;;;;;;;;4974859;28;20347;-84
2024/01/11 05:14:30;;;;;;;8.25;3.00;;;;;;;;;;4974284;28;20042;-83
2024/01/11 05:17:02;;;;;;;5.50;3.00;;;;;;;;;;4956045;28;20051;-84
2024/01/11 05:19:33;;;;;;;9.55;3.10;;;;;;;;;;4974526;28;20050;-84
2024/01/11 05:22:03;;;;;;;4.93;2.90;;;;;;;;;;4957758;28;20481;-84
2024/01/11 05:24:34;;;;;;;8.35;3.00;;;;;;;;;;4965960;28;20051;-84
2024/01/11 05:27:05;;;;;;;9.35;3.53;;;;;;;;;;4936507;29;20066;-84
2024/01/11 05:29:36;;;;;;;8.43;3.47;;;;;;;;;;4937704;29;20059;-85
2024/01/11 05:32:07;;;;;;;7.72;4.00;;;;;;;;;;4938223;29;20051;-84
2024/01/11 05:34:37;;;;;;;10.45;3.75;;;;;;;;;;4938182;29;20058;-84
2024/01/11 05:37:09;;;;;;;11.23;4.72;;;;;;;;;;4937583;29;20055;-84
2024/01/11 05:39:41;;;;;;;8.82;3.78;;;;;;;;;;4938579;29;20043;-85
2024/01/11 05:42:10;;;;;;;9.65;3.78;;;;;;;;;;4937012;29;20058;-84
2024/01/11 05:44:43;;;;;;;6.78;3.72;;;;;;;;;;4937646;29;20056;-84
2024/01/11 05:47:15;;;;;;;9.77;4.20;;;;;;;;;;4936707;29;20047;-85
2024/01/11 05:49:47;;;;;;;8.35;3.92;;;;;;;;;;4936912;29;20062;-85
2024/01/11 05:52:19;;;;;;;12.48;4.72;;;;;;;;;;4954942;29;20051;-84
2024/01/11 05:54:49;;;;;;;18.83;4.35;;;;;;;;;;4937185;29;20055;-85
2024/01/11 05:57:20;;;;;;;7.80;3.08;;;;;;;;;;4937424;29;20462;-85
2024/01/11 05:59:50;;;;;;;9.30;3.17;;;;;;;;;;4937497;29;20462;-84
2024/01/11 06:02:22;;;;;;;7.43;3.17;;;;;;;;;;4955252;29;20051;-85
2024/01/11 06:04:55;;;;;;;6.82;2.92;;;;;;;;;;4938571;29;20043;-85
2024/01/11 06:07:25;;;;;;;8.00;3.30;;;;;;;;;;4921769;29;20055;-85
2024/01/11 06:09:56;;;;;;;;;;;;;;;;;;4955094;29;20058;-85
2024/01/11 06:12:26;;;;;;;8.77;2.78;;;;;;;;;;4921519;29;19945;-85
2024/01/11 06:14:57;;;;;;;9.00;2.63;;;;;;;;;;4937707;29;20051;-85
2024/01/11 06:17:29;;;;;;;6.57;2.70;;;;;;;;;;4937293;29;20058;-85
2024/01/11 06:20:00;;;;;;;6.70;3.40;;;;;;;;;;4936833;29;20315;-86
2024/01/11 06:22:31;;;;;;;5.90;2.53;;;;;;;;;;4937348;29;20050;-85
2024/01/11 06:25:01;;;;;;;10.57;3.17;;;;;;;;;;4936883;29;20059;-85
2024/01/11 06:27:32;;;;;;;8.10;3.28;;;;;;;;;;4952548;29;20055;-85
2024/01/11 06:30:04;;;;;;;5.95;3.22;;;;;;;;;;4954568;28;20036;-85
2024/01/11 06:32:34;;;;;;;5.95;3.17;;;;;;;;;;4954541;29;20055;-85
2024/01/11 06:35:05;;;;;;;8.65;3.40;;;;;;;;;;4921119;29;20051;-85
2024/01/11 06:37:36;;;;;;;6.00;2.92;;;;;;;;;;4937098;29;20047;-85
2024/01/11 06:40:08;;;;;;;12.27;3.30;;;;;;;;;;4937440;28;20501;-85
2024/01/11 06:42:38;;;;;;;10.82;3.17;;;;;;;;;;4925280;29;20055;-84
2024/01/11 06:45:09;;;;;;;10.18;3.85;;;;;;;;;;4947157;29;20066;-85
2024/01/11 06:47:40;;;;;;;9.82;3.28;;;;;;;;;;4966179;29;20047;-85
2024/01/11 06:50:13;;;;;;;8.55;4.43;;;;;;;;;;4947329;29;20050;-84
2024/01/11 06:52:43;;;;;;;9.63;3.83;;;;;;;;;;4965147;29;20054;-85
2024/01/11 06:55:14;;;;;;;8.80;3.30;;;;;;;;;;4941345;29;20051;-84
2024/01/11 06:57:48;;;;;;;7.35;3.53;;;;;;;;;;4957896;29;20043;-84
2024/01/11 07:00:19;;;;;;;8.73;3.13;;;;;;;;;;4940171;29;20058;-84
2024/01/11 07:02:50;;;;;;;8.65;3.47;;;;;;;;;;4940160;29;20058;-84
2024/01/11 07:05:21;;;;;;;7.75;3.60;;;;;;;;;;4940763;29;20479;-84
2024/01/11 07:07:54;;;;;;;12.27;3.75;;;;;;;;;;4957719;29;20043;-83
2024/01/11 07:10:28;;;;;;;9.00;3.60;;;;;;;;;;4939724;29;20494;-84
2024/01/11 07:12:59;;;;;;;6.80;4.00;;;;;;;;;;4940729;29;20043;-83
2024/01/11 07:15:30;;;;;;;6.32;3.67;;;;;;;;;;4957869;29;20043;-84
2024/01/11 07:18:01;;;;;;;7.47;3.80;;;;;;;;;;4924221;29;20043;-84
2024/01/11 07:20:32;;;;;;;5.57;2.53;;;;;;;;;;4940746;29;20058;-83
2024/01/11 07:23:01;;;;;;;5.88;2.38;;;;;;;;;;4939749;29;20059;-83
2024/01/11 07:25:34;;;;;;;5.68;2.35;;;;;;;;;;4939874;28;20055;-79
2024/01/11 07:28:05;;;;;;;5.65;2.28;;;;;;;;;;4957161;29;20047;-81
2024/01/11 07:30:35;;;;;;;4.32;2.55;;;;;;;;;;4939541;29;20047;-83
2024/01/11 07:33:05;;;;;;;6.43;3.00;;;;;;;;;;4939110;29;20062;-83
2024/01/11 07:35:37;;;;;;;4.82;2.40;;;;;;;;;;4956776;29;20043;-83
2024/01/11 07:38:08;;;;;;;14.38;3.22;;;;;;;;;;4923921;29;20051;-83
2024/01/11 07:40:39;;;;;;;10.85;2.83;;;;;;;;;;4939956;29;20418;-83
2024/01/11 07:43:12;;;;;;;8.75;2.95;;;;;;;;;;4954921;29;20600;-83
2024/01/11 07:45:41;;;;;;;7.05;2.70;;;;;;;;;;4938919;29;20070;-83
2024/01/11 07:48:13;;;;;;;4.28;2.55;;;;;;;;;;4956927;29;20054;-84
2024/01/11 07:50:45;;;;;;;6.03;2.72;;;;;;;;;;4938191;29;20059;-84
2024/01/11 07:53:15;;;;;;;5.30;2.67;;;;;;;;;;4955064;28;20483;-85
2024/01/11 07:55:47;;;;;;;6.70;2.55;;;;;;;;;;4954578;29;20058;-85
2024/01/11 07:58:20;;;;;;;6.68;2.47;;;;;;;;;;4938679;29;20047;-84
2024/01/11 08:00:52;;;;;;;6.65;2.38;;;;;;;;;;4956262;29;20395;-84
2024/01/11 08:03:23;;;;;;;5.82;2.50;;;;;;;;;;4956848;29;20470;-84
2024/01/11 08:05:55;;;;;;;8.32;3.80;;;;;;;;;;4955029;29;20403;-84
2024/01/11 08:08:26;;;;;;;7.20;2.45;;;;;;;;;;4923185;29;20055;-84
2024/01/11 08:10:58;;;;;;;4.80;2.85;;;;;;;;;;4939207;29;20382;-83
2024/01/11 08:13:31;;;;;;;6.18;2.67;;;;;;;;;;4954223;29;20055;-83
2024/01/11 08:16:07;;;;;;;7.18;2.95;;;;;;;;;;4954905;28;20054;-84
2024/01/11 08:18:38;;;;;;;10.18;2.60;;;;;;;;;;4975706;28;20054;-84
2024/01/11 08:21:11;;;;;;;3.75;2.40;;;;;;;;;;4975688;28;20043;-84
2024/01/11 08:23:47;;;;;;;6.38;3.10;;;;;;;;;;4958899;28;20525;-84
2024/01/11 08:26:21;;;;;;;8.00;4.18;;;;;;;;;;4975452;28;20050;-84
2024/01/11 08:28:53;;;;;;;5.35;2.75;;;;;;;;;;4957130;28;20058;-84
2024/01/11 08:31:24;;;;;;;6.60;2.28;;;;;;;;;;4938642;28;20051;-84
2024/01/11 08:33:56;;;;;;;6.82;2.67;;;;;;;;;;4945168;29;20054;-84
2024/01/11 08:36:34;;;;;;;10.00;3.03;;;;;;;;;;4948330;28;20054;-84
2024/01/11 08:39:08;;;;;;;7.57;3.05;;;;;;;;;;4957668;28;20491;-84
2024/01/11 08:41:41;;;;;;;9.65;2.40;;;;;;;;;;4973453;28;20042;-84
2024/01/11 08:44:12;;;;;;;9.25;3.20;;;;;;;;;;4956264;28;20061;-84
2024/01/11 08:46:43;;;;;;;8.13;2.92;;;;;;;;;;4957256;28;20054;-84
2024/01/11 08:49:14;;;;;;;6.10;2.45;;;;;;;;;;4940901;28;20050;-85
2024/01/11 08:51:47;;;;;;;6.03;2.63;;;;;;;;;;4956759;28;20058;-84
2024/01/11 08:54:20;;;;;;;4.68;2.60;;;;;;;;;;4957676;28;20153;-84
2024/01/11 08:56:52;;;;;;;8.95;2.88;;;;;;;;;;4957023;28;20110;-85
2024/01/11 08:59:24;;;;;;;5.53;2.28;;;;;;;;;;4956167;28;20058;-85
2024/01/11 09:01:58;;;;;;;7.95;2.50;;;;;;;;;;4941744;28;20055;-84
2024/01/11 09:04:43;;;;;;;9.15;2.83;;;;;;;;;;4942616;28;20513;-83
2024/01/11 09:07:15;;;;;;;7.55;2.83;;;;;;;;;;4955652;28;20046;-84
2024/01/11 09:09:46;;;;;;;8.98;2.92;;;;;;;;;;4968228;28;20046;-84
2024/01/11 09:12:26;;;;;;;6.68;2.58;;;;;;;;;;4955814;28;20051;-84
2024/01/11 09:14:58;;;;;;;14.45;3.83;;;;;;;;;;4956473;28;20054;-84
2024/01/11 09:17:29;;;;;;;6.13;2.45;;;;;;;;;;4956677;28;20050;-84
2024/01/11 09:20:00;;;;;;;7.13;2.60;;;;;;;;;;4956701;28;20062;-84
2024/01/11 09:22:31;;;;;;;5.32;2.33;;;;;;;;;;4974617;28;20148;-84
2024/01/11 09:25:02;;;;;;;5.95;2.50;;;;;;;;;;4948322;29;20062;-83
2024/01/11 09:27:32;;;;;;;5.03;2.50;;;;;;;;;;4954700;29;20060;-84
2024/01/11 09:30:04;;;;;;;11.63;2.40;;;;;;;;;;4955387;28;20054;-83
2024/01/11 09:32:35;;;;;;;8.70;2.65;;;;;;;;;;4973352;28;20054;-83
2024/01/11 09:35:07;;;;;;;4.78;2.55;;;;;;;;;;4957627;28;20513;-83
2024/01/11 09:37:42;;;;;;;9.77;2.78;;;;;;;;;;4958134;28;20042;-83
2024/01/11 09:40:13;;;;;;;7.03;2.22;;;;;;;;;;4972445;28;20047;-84
2024/01/11 09:42:44;;;;;;;6.32;2.60;;;;;;;;;;4942817;29;20070;-83
2024/01/11 09:45:17;;;;;;;7.60;2.60;;;;;;;;;;4937831;28;20517;-83
2024/01/11 09:47:50;;;;;;;9.18;2.65;;;;;;;;;;4964820;28;20146;-84
2024/01/11 09:50:22;;;;;;;5.32;2.55;;;;;;;;;;4955736;28;20058;-83
2024/01/11 09:52:53;;;;;;;4.60;2.45;;;;;;;;;;4955623;28;20058;-83
2024/01/11 09:55:24;;;;;;;5.57;3.60;;;;;;;;;;4955612;28;20359;-83
2024/01/11 09:57:59;;;;;;;5.32;2.30;;;;;;;;;;4957600;28;20057;-83
2024/01/11 10:00:31;;;;;;;4.50;2.47;;;;;;;;;;4974368;28;20047;-83
2024/01/11 10:03:02;;;;;;;;;;;;;;;;;;4974680;28;20061;-83
2024/01/11 10:05:35;;;;;;;4.47;2.53;;;;;;;;;;4973652;28;19922;-83
2024/01/11 10:08:07;;;;;;;7.10;2.95;;;;;;;;;;4974095;28;20374;-83
2024/01/11 10:10:37;;;;;;;7.80;2.90;;;;;;;;;;4973897;28;20043;-83
2024/01/11 10:13:11;;;;;;;7.47;3.20;;;;;;;;;;4956246;28;20058;-83
2024/01/11 10:15:42;;;;;;;13.98;3.75;;;;;;;;;;4956725;28;20054;-82
2024/01/11 10:18:13;;;;;;;8.85;3.53;;;;;;;;;;4978382;28;20062;-82
2024/01/11 10:20:43;;;;;;;7.57;3.30;;;;;;;;;;4961183;28;20074;-83
2024/01/11 10:23:13;;;;;;;8.13;3.80;;;;;;;;;;4977764;28;20067;-82
2024/01/11 10:25:46;;;;;;;8.52;4.10;;;;;;;;;;4977256;28;20042;-83
2024/01/11 10:28:18;;;;;;;7.57;4.30;;;;;;;;;;4959632;28;20073;-82
2024/01/11 10:30:50;;;;;;;7.72;3.53;;;;;;;;;;4977518;28;20050;-82
2024/01/11 10:33:21;;;;;;;8.95;4.30;;;;;;;;;;4977065;28;20047;-82
2024/01/11 10:35:52;;;;;;;10.52;4.57;;;;;;;;;;4960672;28;20485;-82
2024/01/11 10:38:26;;;;;;;6.43;3.75;;;;;;;;;;4959612;28;20073;-81
2024/01/11 10:41:00;;;;;;;10.10;4.07;;;;;;;;;;4977024;28;20043;-82
2024/01/11 10:43:31;;;;;;;9.35;4.30;;;;;;;;;;4976865;28;20057;-81
2024/01/11 10:46:04;;;;;;;7.85;4.05;;;;;;;;;;4958992;28;20490;-82
2024/01/11 10:48:42;;;;;;;8.95;6.68;;;;;;;;;;4977161;28;20382;-82
2024/01/11 10:51:15;;;;;;;7.53;3.58;;;;;;;;;;4977297;28;20147;-81
2024/01/11 10:53:47;;;;;;;6.97;3.75;;;;;;;;;;4959409;28;20047;-82
2024/01/11 10:56:18;;;;;;;10.63;4.15;;;;;;;;;;4976766;28;20478;-82
2024/01/11 10:58:50;;;;;;;11.13;4.70;;;;;;;;;;4958369;28;20422;-82
2024/01/11 11:01:21;;;;;;;8.90;3.85;;;;;;;;;;4960407;28;20069;-82
2024/01/11 11:03:55;;;;;;;11.32;4.75;;;;;;;;;;4959820;28;20039;-83
2024/01/11 11:06:28;;;;;;;10.00;3.50;;;;;;;;;;4956993;28;20540;-83
2024/01/11 11:09:00;;;;;;;5.95;3.92;;;;;;;;;;4972866;28;20505;-83
2024/01/11 11:11:31;;;;;;;7.63;3.70;;;;;;;;;;4923890;29;20051;-84
2024/01/11 11:14:02;;;;;;;7.18;3.58;;;;;;;;;;4961500;28;20034;-82
2024/01/11 11:16:33;;;;;;;8.48;3.50;;;;;;;;;;4956625;29;20055;-84
2024/01/11 11:19:05;;;;;;;5.97;3.50;;;;;;;;;;4956204;29;20047;-85
2024/01/11 11:21:45;;;;;;;6.50;3.40;;;;;;;;;;4940194;29;20054;-85
2024/01/11 11:24:17;;;;;;;8.45;3.03;;;;;;;;;;4939201;29;20047;-86
2024/01/11 11:26:49;;;;;;;8.93;3.00;;;;;;;;;;4939566;29;20066;-86
2024/01/11 11:29:20;;;;;;;11.95;3.80;;;;;;;;;;4938463;29;20052;-85
2024/01/11 11:31:53;;;;;;;8.48;3.33;;;;;;;;;;4939466;29;20047;-85
2024/01/11 11:34:44;;;;;;;7.32;3.80;;;;;;;;;;4940282;28;20054;-86
2024/01/11 11:37:24;;;;;;;6.95;3.50;;;;;;;;;;4970092;28;20059;-86
2024/01/11 11:39:55;;;;;;;9.55;3.70;;;;;;;;;;4957464;28;20066;-85
2024/01/11 11:42:28;;;;;;;7.65;3.58;;;;;;;;;;4958713;28;20043;-85
2024/01/11 11:44:58;;;;;;;7.47;4.00;;;;;;;;;;4958231;28;20039;-84
2024/01/11 11:47:37;;;;;;;7.90;3.80;;;;;;;;;;4972262;28;20401;-85
2024/01/11 11:50:09;;;;;;;6.15;3.40;;;;;;;;;;4955503;28;20510;-85
2024/01/11 11:52:44;;;;;;;7.82;3.90;;;;;;;;;;4958307;28;20057;-85
2024/01/11 11:55:14;;;;;;;8.65;4.25;;;;;;;;;;4959225;28;20054;-85
2024/01/11 11:57:45;;;;;;;8.13;3.38;;;;;;;;;;4957770;28;20061;-83
2024/01/11 12:00:16;;;;;;;7.38;3.20;;;;;;;;;;4975814;28;20059;-85
2024/01/11 12:02:48;;;;;;;6.70;3.83;;;;;;;;;;4958615;28;20053;-84
2024/01/11 12:05:21;;;;;;;5.20;3.10;;;;;;;;;;4959427;28;20046;-85
2024/01/11 12:07:53;;;;;;;7.72;3.35;;;;;;;;;;4957738;28;20509;-84
2024/01/11 12:10:25;;;;;;;9.38;3.42;;;;;;;;;;4949300;28;20065;-83
2024/01/11 12:12:56;;;;;;;10.00;3.28;;;;;;;;;;4944712;29;20469;-84
2024/01/11 12:15:27;;;;;;;6.18;3.20;;;;;;;;;;4939727;28;20051;-84
2024/01/11 12:17:59;;;;;;;4.50;2.80;;;;;;;;;;4958081;28;20050;-82
2024/01/11 12:20:30;;;;;;;6.55;2.92;;;;;;;;;;4956083;29;20046;-85
2024/01/11 12:23:02;;;;;;;8.73;3.53;;;;;;;;;;4938231;29;20059;-84
2024/01/11 12:25:33;;;;;;;10.35;5.25;;;;;;;;;;4955857;29;20058;-86
2024/01/11 12:28:06;;;;;;;12.20;6.95;;;;;;;;;;4924006;29;20128;-83
2024/01/11 12:30:37;;;;;;;6.32;3.63;;;;;;;;;;4956560;29;20051;-85
2024/01/11 12:33:08;;;;;;;5.80;2.75;;;;;;;;;;4955623;29;20043;-85
2024/01/11 12:35:40;;;;;;;10.68;3.35;;;;;;;;;;4939558;29;20051;-86
2024/01/11 12:38:11;;;;;;;9.93;6.35;;;;;;;;;;4969712;28;20046;-86
2024/01/11 12:40:42;;;;;;;9.55;4.15;;;;;;;;;;4938122;29;20050;-86
2024/01/11 12:43:12;;;;;;;8.55;4.07;;;;;;;;;;4938231;29;20055;-84
2024/01/11 12:45:44;;;;;;;7.22;4.03;;;;;;;;;;4969796;28;20047;-88
2024/01/11 12:48:18;;;;;;;10.63;3.63;;;;;;;;;;4922647;29;20390;-85
2024/01/11 12:50:49;;;;;;;7.15;2.78;;;;;;;;;;4938242;29;20059;-86
2024/01/11 12:53:26;;;;;;;6.82;2.42;;;;;;;;;;4956622;29;20062;-89
2024/01/11 12:56:08;;;;;;;4.72;2.45;;;;;;;;;;4939988;29;20046;-86
2024/01/11 12:58:40;;;;;;;7.97;3.13;;;;;;;;;;4922333;29;20048;-85
2024/01/11 13:01:12;;;;;;;9.98;2.70;;;;;;;;;;4937737;29;20399;-84
2024/01/11 13:03:46;;;;;;;6.32;2.67;;;;;;;;;;4955512;29;20425;-90
2024/01/11 13:06:18;;;;;;;5.90;2.42;;;;;;;;;;4937177;29;20062;-89
2024/01/11 13:08:49;;;;;;;4.70;2.13;;;;;;;;;;4937082;29;20073;-89
2024/01/11 13:11:21;;;;;;;4.40;2.17;;;;;;;;;;4923046;29;20514;-86
2024/01/11 13:13:51;;;;;;;5.30;2.13;;;;;;;;;;4970273;28;20078;-90
2024/01/11 13:16:22;;;;;;;5.93;2.05;;;;;;;;;;4923497;29;20070;-86
2024/01/11 13:18:55;;;;;;;2.78;1.70;;;;;;;;;;4970550;28;20067;-89
2024/01/11 13:21:26;;;;;;;4.32;1.58;;;;;;;;;;4923710;29;20070;-87
2024/01/11 13:23:56;;;;;;;5.65;1.80;;;;;;;;;;4937322;29;20054;-86
2024/01/11 13:26:27;;;;;;;6.13;1.90;;;;;;;;;;4955672;29;20066;-92
2024/01/11 13:28:59;;;;;;;3.42;1.80;;;;;;;;;;4938357;29;20051;-90
2024/01/11 13:31:30;;;;;;;5.47;1.95;;;;;;;;;;4938233;29;20039;-88
2024/01/11 13:34:03;;;;;;;5.15;1.75;;;;;;;;;;4937574;29;20394;-89
2024/01/11 13:36:35;;;;;;;7.25;2.10;;;;;;;;;;4937526;29;20047;-88
2024/01/11 13:39:08;;;;;;;4.38;1.77;;;;;;;;;;4923185;29;20098;-89
2024/01/11 13:41:40;;;;;;;2.95;1.60;;;;;;;;;;4938071;29;20054;-88
2024/01/11 13:44:11;;;;;;;3.40;1.45;;;;;;;;;;4955326;29;20059;-91
2024/01/11 13:46:41;;;;;;;3.78;1.95;;;;;;;;;;4938132;29;20390;-88
2024/01/11 13:49:12;;;;;;;6.25;1.60;;;;;;;;;;4937359;29;20051;-89
2024/01/11 13:51:47;;;;;;;2.10;1.40;;;;;;;;;;4943412;29;20047;-89
2024/01/11 13:54:28;;;;;;;8.32;1.88;;;;;;;;;;4941140;29;20047;-86
2024/01/11 13:57:00;;;;;;;4.40;1.88;;;;;;;;;;4941614;29;20054;-92
2024/01/11 13:59:32;;;;;;;4.25;1.67;;;;;;;;;;4941637;29;20047;-91
2024/01/11 14:02:03;;;;;;;3.60;1.55;;;;;;;;;;4959097;29;20050;-89
2024/01/11 14:04:35;;;;;;;3.92;1.45;;;;;;;;;;4926357;29;20067;-92
2024/01/11 14:07:07;;;;;;;2.38;1.30;;;;;;;;;;4941720;29;20051;-93
2024/01/11 14:09:38;;;;;;;2.70;1.40;;;;;;;;;;4942202;29;20059;-89
2024/01/11 14:12:11;;;;;;;3.90;1.50;;;;;;;;;;4942458;29;20051;-89
2024/01/11 14:14:48;;;;;;;3.28;1.15;;;;;;;;;;4957955;28;20051;-93
2024/01/11 14:17:18;;;;;;;3.72;1.60;;;;;;;;;;4941852;29;20051;-93
2024/01/11 14:19:49;;;;;;;3.30;1.63;;;;;;;;;;4941607;29;20066;-92
2024/01/11 14:22:21;;;;;;;2.47;1.20;;;;;;;;;;4945954;29;20051;-91
2024/01/11 14:24:53;;;;;;;3.97;1.40;;;;;;;;;;4965691;28;20494;-90
2024/01/11 14:27:24;;;;;;;2.83;1.30;;;;;;;;;;4933989;29;20058;-91
2024/01/11 14:29:54;;;;;;;3.00;1.42;;;;;;;;;;4949497;29;20053;-89
2024/01/11 14:32:26;;;;;;;3.85;1.70;;;;;;;;;;4947731;29;20059;-90
2024/01/11 14:35:07;;;;;;;3.15;1.10;;;;;;;;;;4943978;29;20047;-92
2024/01/11 14:37:37;;;;;;;;;;;;;;;;;;4926145;29;20062;-90
2024/01/11 14:40:12;;;;;;;1.90;1.10;;;;;;;;;;4925465;29;19926;-89
2024/01/11 14:42:44;;;;;;;4.78;1.17;;;;;;;;;;4941555;29;20490;-89
2024/01/11 14:45:17;;;;;;;5.65;2.35;;;;;;;;;;4941471;29;20158;-88
2024/01/11 14:47:47;;;;;;;4.28;1.00;;;;;;;;;;4941270;29;20059;-92
2024/01/11 14:50:19;;;;;;;5.68;1.42;;;;;;;;;;4941031;29;20059;-92
2024/01/11 14:52:50;;;;;;;3.67;1.40;;;;;;;;;;4940642;29;20520;-89
2024/01/11 14:55:21;;;;;;;4.97;1.40;;;;;;;;;;4924447;29;20066;-89
2024/01/11 14:57:51;;;;;;;5.15;1.38;;;;;;;;;;4941699;29;20075;-90
2024/01/11 15:00:24;;;;;;;3.28;1.20;;;;;;;;;;4925871;29;20058;-92
2024/01/11 15:02:56;;;;;;;4.72;1.52;;;;;;;;;;4925167;29;20051;-89
2024/01/11 15:05:26;;;;;;;3.10;1.20;;;;;;;;;;4941771;29;20058;-89
2024/01/11 15:07:56;;;;;;;3.17;1.70;;;;;;;;;;4941844;28;20470;-90
2024/01/11 15:10:26;;;;;;;3.67;1.80;;;;;;;;;;4949534;29;20052;-90